createdAt,value
2023-02-12T00:02:11.786Z,100.00
2023-02-12T00:07:14.864Z,100.00
2023-02-12T00:12:18.481Z,100.00
2023-02-12T00:17:21.590Z,100.00
2023-02-12T00:22:25.309Z,100.00
2023-02-12T00:27:28.413Z,100.00
2023-02-12T00:32:31.458Z,100.00
2023-02-12T00:37:34.626Z,100.00
2023-02-12T00:42:37.735Z,100.00
2023-02-12T00:47:40.936Z,100.00
2023-02-12T00:52:44.245Z,100.00
2023-02-12T00:57:47.558Z,100.00
2023-02-12T01:02:50.665Z,100.00
2023-02-12T01:07:54.591Z,100.00
2023-02-12T01:12:57.700Z,100.00
2023-02-12T01:18:00.660Z,100.00
2023-02-12T01:23:04.325Z,100.00
2023-02-12T01:28:07.557Z,100.00
2023-02-12T01:33:10.736Z,100.00
2023-02-12T01:38:14.150Z,100.00
2023-02-12T01:43:17.153Z,100.00
2023-02-12T01:48:23.927Z,100.00
2023-02-12T01:53:33.499Z,100.00
2023-02-12T01:58:41.934Z,100.00
2023-02-12T02:03:49.546Z,100.00
2023-02-12T02:08:52.659Z,100.00
2023-02-12T02:14:15.413Z,100.00
2023-02-12T02:19:52.724Z,100.00
2023-02-12T02:25:08.215Z,100.00
2023-02-12T02:30:30.678Z,100.00
2023-02-12T02:35:56.205Z,100.00
2023-02-12T02:41:07.401Z,100.00
2023-02-12T02:46:34.966Z,100.00
2023-02-12T02:51:43.410Z,100.00
2023-02-12T02:56:50.095Z,100.00
2023-02-12T03:02:09.181Z,100.00
2023-02-12T03:07:20.099Z,100.00
2023-02-12T03:12:33.920Z,100.00
2023-02-12T03:17:43.462Z,100.00
2023-02-12T03:22:55.806Z,100.00
2023-02-12T03:28:11.746Z,100.00
2023-02-12T03:33:14.815Z,100.00
2023-02-12T03:38:27.363Z,100.00
2023-02-12T03:43:45.295Z,100.00
2023-02-12T03:48:54.272Z,100.00
2023-02-12T03:53:57.853Z,100.00
2023-02-12T03:59:00.854Z,100.00
2023-02-12T04:04:06.916Z,100.00
2023-02-12T04:09:12.807Z,100.00
2023-02-12T04:14:38.231Z,100.00
2023-02-12T04:19:56.491Z,100.00
2023-02-12T04:25:12.392Z,100.00
2023-02-12T04:30:22.706Z,100.00
2023-02-12T04:35:34.682Z,100.00
2023-02-12T04:40:40.605Z,100.00
2023-02-12T04:45:44.606Z,100.00
2023-02-12T04:50:47.900Z,100.00
2023-02-12T04:55:51.001Z,100.00
2023-02-12T05:00:53.895Z,100.00
2023-02-12T05:05:57.136Z,100.00
2023-02-12T05:11:06.621Z,100.00
2023-02-12T05:16:09.807Z,100.00
2023-02-12T05:21:13.385Z,100.00
2023-02-12T05:26:21.581Z,100.00
2023-02-12T05:31:25.031Z,100.00
2023-02-12T05:36:28.538Z,100.00
2023-02-12T05:41:35.335Z,100.00
2023-02-12T05:46:39.690Z,100.00
2023-02-12T05:51:43.045Z,100.00
2023-02-12T05:56:48.436Z,100.00
2023-02-12T06:01:52.190Z,100.00
2023-02-12T06:06:56.692Z,100.00
2023-02-12T06:11:59.794Z,100.00
2023-02-12T06:17:02.803Z,100.00
2023-02-12T06:22:06.654Z,100.00
2023-02-12T06:27:09.828Z,100.00
2023-02-12T06:32:14.030Z,100.00
2023-02-12T06:37:17.170Z,100.00
2023-02-12T06:42:20.582Z,100.00
2023-02-12T06:47:24.001Z,100.00
2023-02-12T06:52:28.333Z,100.00
2023-02-12T06:57:31.345Z,100.00
2023-02-12T07:02:34.439Z,100.00
2023-02-12T07:07:37.853Z,100.00
2023-02-12T07:12:40.976Z,100.00
2023-02-12T07:17:44.074Z,100.00
2023-02-12T07:22:47.272Z,100.00
2023-02-12T07:27:50.594Z,100.00
2023-02-12T07:32:53.798Z,98.50
2023-02-12T07:37:56.899Z,88.08
2023-02-12T07:43:00.210Z,79.90
2023-02-12T07:48:03.939Z,74.73
2023-02-12T07:53:07.034Z,69.16
2023-02-12T07:58:10.041Z,62.48
2023-02-12T08:03:13.248Z,58.49
2023-02-12T08:08:16.660Z,54.88
2023-02-12T08:13:19.972Z,52.89
2023-02-12T08:18:24.204Z,49.70
2023-02-12T08:23:27.207Z,44.96
2023-02-12T08:28:30.481Z,40.81
2023-02-12T08:33:33.630Z,39.77
2023-02-12T08:38:38.164Z,39.86
2023-02-12T08:43:42.633Z,39.01
2023-02-12T08:48:46.623Z,37.13
2023-02-12T08:53:54.028Z,36.60
2023-02-12T08:58:58.874Z,37.57
2023-02-12T09:04:02.207Z,38.25
2023-02-12T09:09:05.492Z,39.52
2023-02-12T09:14:12.181Z,40.62
2023-02-12T09:19:15.941Z,41.62
2023-02-12T09:24:19.008Z,42.10
2023-02-12T09:29:22.321Z,42.22
2023-02-12T09:34:25.429Z,41.62
2023-02-12T09:39:31.325Z,40.90
2023-02-12T09:44:50.270Z,39.02
2023-02-12T09:50:19.184Z,39.90
2023-02-12T09:55:30.692Z,41.05
2023-02-12T10:00:33.932Z,42.05
2023-02-12T10:05:48.340Z,42.49
2023-02-12T10:11:13.696Z,44.43
2023-02-12T10:16:43.124Z,47.03
2023-02-12T10:21:56.260Z,49.27
2023-02-12T10:27:01.621Z,51.71
2023-02-12T10:32:24.515Z,53.84
2023-02-12T10:37:53.811Z,55.77
2023-02-12T10:42:59.474Z,57.38
2023-02-12T10:48:10.559Z,58.89
2023-02-12T10:53:30.768Z,60.41
2023-02-12T10:58:34.290Z,61.25
2023-02-12T11:03:38.414Z,61.87
2023-02-12T11:08:42.236Z,62.40
2023-02-12T11:13:55.376Z,62.42
2023-02-12T11:19:00.938Z,62.30
2023-02-12T11:24:23.086Z,61.92
2023-02-12T11:29:26.197Z,62.15
2023-02-12T11:34:30.736Z,63.36
2023-02-12T11:39:36.836Z,63.80
2023-02-12T11:44:42.120Z,64.08
2023-02-12T11:50:19.787Z,64.70
2023-02-12T11:55:27.094Z,64.91
2023-02-12T12:00:40.593Z,65.81
2023-02-12T12:06:08.624Z,66.46
2023-02-12T12:11:30.365Z,67.11
2023-02-12T12:17:19.356Z,67.42
2023-02-12T12:22:40.998Z,67.67
2023-02-12T12:28:09.392Z,68.21
2023-02-12T12:33:38.007Z,69.08
2023-02-12T12:38:54.106Z,69.65
2023-02-12T12:44:18.809Z,70.58
2023-02-12T12:49:41.369Z,71.18
2023-02-12T12:54:57.026Z,71.81
2023-02-12T13:00:00.385Z,72.19
2023-02-12T13:05:41.273Z,72.68
2023-02-12T13:11:24.218Z,72.84
2023-02-12T13:16:36.494Z,73.45
2023-02-12T13:22:01.461Z,74.36
2023-02-12T13:27:19.412Z,75.37
2023-02-12T13:32:28.733Z,76.01
2023-02-12T13:37:45.384Z,76.45
2023-02-12T13:43:10.250Z,76.94
2023-02-12T13:48:16.884Z,77.13
2023-02-12T13:53:49.279Z,77.34
2023-02-12T13:58:56.428Z,77.58
2023-02-12T14:04:23.493Z,77.88
2023-02-12T14:09:39.025Z,78.79
2023-02-12T14:14:46.869Z,79.51
2023-02-12T14:19:53.036Z,80.37
2023-02-12T14:24:57.982Z,81.42
2023-02-12T14:30:26.444Z,82.12
2023-02-12T14:35:30.119Z,83.37
2023-02-12T14:40:34.173Z,84.70
2023-02-12T14:45:38.969Z,86.21
2023-02-12T14:50:52.475Z,87.92
2023-02-12T14:55:57.337Z,89.35
2023-02-12T15:01:03.936Z,90.54
2023-02-12T15:06:24.573Z,91.51
2023-02-12T15:11:34.252Z,92.47
2023-02-12T15:17:02.741Z,93.49
2023-02-12T15:22:32.460Z,94.79
2023-02-12T15:27:35.778Z,95.88
2023-02-12T15:32:39.529Z,96.80
2023-02-12T15:37:43.727Z,97.84
2023-02-12T15:42:54.585Z,99.02
2023-02-12T15:48:00.994Z,99.75
2023-02-12T15:53:04.506Z,100.00
2023-02-12T15:58:28.198Z,100.00
2023-02-12T16:03:41.336Z,100.00
2023-02-12T16:08:48.652Z,100.00
2023-02-12T16:13:57.785Z,100.00
2023-02-12T16:19:16.454Z,100.00
2023-02-12T16:24:35.748Z,100.00
2023-02-12T16:29:46.078Z,100.00
2023-02-12T16:35:11.853Z,100.00
2023-02-12T16:40:18.952Z,100.00
2023-02-12T16:45:28.845Z,100.00
2023-02-12T16:50:35.364Z,100.00
2023-02-12T16:55:40.763Z,100.00
2023-02-12T17:00:45.113Z,100.00
2023-02-12T17:05:50.663Z,100.00
2023-02-12T17:10:55.105Z,100.00
2023-02-12T17:16:03.067Z,100.00
2023-02-12T17:21:15.336Z,100.00
2023-02-12T17:26:18.545Z,100.00
2023-02-12T17:31:22.063Z,100.00
2023-02-12T17:36:26.298Z,100.00
2023-02-12T17:41:29.403Z,100.00
2023-02-12T17:46:33.430Z,100.00
2023-02-12T17:51:38.856Z,100.00
2023-02-12T17:56:44.616Z,100.00
2023-02-12T18:01:48.171Z,100.00
2023-02-12T18:06:51.480Z,100.00
2023-02-12T18:11:55.533Z,100.00
2023-02-12T18:17:00.242Z,100.00
2023-02-12T18:22:03.769Z,100.00
2023-02-12T18:27:07.749Z,100.00
2023-02-12T18:32:16.500Z,100.00
2023-02-12T18:37:19.643Z,100.00
2023-02-12T18:42:23.459Z,100.00
2023-02-12T18:47:26.562Z,100.00
2023-02-12T18:52:33.609Z,100.00
2023-02-12T18:57:37.177Z,100.00
2023-02-12T19:02:40.393Z,100.00
2023-02-12T19:07:43.796Z,100.00
2023-02-12T19:12:47.108Z,100.00
2023-02-12T19:17:51.034Z,100.00
2023-02-12T19:22:54.445Z,100.00
2023-02-12T19:27:59.240Z,100.00
2023-02-12T19:33:03.329Z,100.00
2023-02-12T19:38:07.041Z,100.00
2023-02-12T19:43:12.930Z,100.00
2023-02-12T19:48:16.431Z,100.00
2023-02-12T19:53:19.437Z,100.00
2023-02-12T19:58:23.268Z,100.00
2023-02-12T20:03:27.286Z,100.00
2023-02-12T20:08:30.644Z,100.00
2023-02-12T20:13:34.183Z,100.00
2023-02-12T20:18:38.034Z,100.00
2023-02-12T20:23:42.696Z,100.00
2023-02-12T20:28:47.015Z,100.00
2023-02-12T20:34:02.195Z,100.00
2023-02-12T20:39:09.310Z,100.00
2023-02-12T20:44:17.305Z,100.00
2023-02-12T20:49:20.623Z,100.00
2023-02-12T20:54:23.962Z,100.00
2023-02-12T20:59:27.040Z,100.00
2023-02-12T21:04:32.221Z,100.00
2023-02-12T21:09:35.831Z,100.00
2023-02-12T21:14:39.464Z,100.00
2023-02-12T21:19:43.151Z,100.00
2023-02-12T21:24:46.761Z,100.00
2023-02-12T21:29:50.183Z,100.00
2023-02-12T21:34:53.355Z,100.00
2023-02-12T21:39:56.589Z,100.00
2023-02-12T21:44:59.690Z,100.00
2023-02-12T21:50:02.814Z,100.00
2023-02-12T21:55:07.622Z,100.00
2023-02-12T22:00:13.081Z,100.00
2023-02-12T22:05:16.622Z,100.00
2023-02-12T22:10:19.930Z,100.00
2023-02-12T22:15:24.159Z,100.00
2023-02-12T22:20:27.425Z,100.00
2023-02-12T22:25:32.813Z,100.00
2023-02-12T22:30:36.241Z,100.00
2023-02-12T22:35:39.350Z,100.00
2023-02-12T22:40:42.451Z,100.00
2023-02-12T22:45:45.794Z,100.00
2023-02-12T22:50:48.667Z,100.00
2023-02-12T22:55:52.856Z,100.00
2023-02-12T23:00:56.598Z,100.00
2023-02-12T23:06:06.698Z,100.00
2023-02-12T23:11:11.218Z,100.00
2023-02-12T23:16:15.374Z,100.00
2023-02-12T23:21:19.175Z,100.00
2023-02-12T23:26:23.216Z,100.00
2023-02-12T23:31:26.537Z,100.00
2023-02-12T23:36:29.844Z,100.00
2023-02-12T23:41:33.057Z,100.00
2023-02-12T23:46:38.005Z,100.00
2023-02-12T23:51:41.015Z,100.00
2023-02-12T23:56:44.218Z,100.00
